sensor_id;sensor_type;location;lat;lon;timestamp;P1;durP1;ratioP1;P2;durP2;ratioP2
78778;SDS011;68121;52.404;5.318;2024-02-26T00:00:07;3.53;;;2.53;;
78778;SDS011;68121;52.404;5.318;2024-02-26T00:02:37;2.67;;;1.98;;
78778;SDS011;68121;52.404;5.318;2024-02-26T00:05:05;2.92;;;2.20;;
78778;SDS011;68121;52.404;5.318;2024-02-26T00:07:32;2.75;;;2.03;;
78778;SDS011;68121;52.404;5.318;2024-02-26T00:09:58;2.83;;;2.33;;
78778;SDS011;68121;52.404;5.318;2024-02-26T00:12:24;5.13;;;2.03;;
78778;SDS011;68121;52.404;5.318;2024-02-26T00:14:50;6.00;;;2.50;;
78778;SDS011;68121;52.404;5.318;2024-02-26T00:17:18;4.88;;;2.60;;
78778;SDS011;68121;52.404;5.318;2024-02-26T00:19:44;4.88;;;2.80;;
78778;SDS011;68121;52.404;5.318;2024-02-26T00:22:10;4.78;;;3.38;;
78778;SDS011;68121;52.404;5.318;2024-02-26T00:24:36;4.97;;;3.05;;
78778;SDS011;68121;52.404;5.318;2024-02-26T00:27:02;5.88;;;2.85;;
78778;SDS011;68121;52.404;5.318;2024-02-26T00:29:28;4.50;;;2.97;;
78778;SDS011;68121;52.404;5.318;2024-02-26T00:31:55;4.70;;;2.75;;
78778;SDS011;68121;52.404;5.318;2024-02-26T00:34:21;7.15;;;3.53;;
78778;SDS011;68121;52.404;5.318;2024-02-26T00:36:47;6.25;;;3.65;;
78778;SDS011;68121;52.404;5.318;2024-02-26T00:39:13;4.78;;;3.45;;
78778;SDS011;68121;52.404;5.318;2024-02-26T00:41:42;6.53;;;3.08;;
78778;SDS011;68121;52.404;5.318;2024-02-26T00:44:08;6.88;;;3.53;;
78778;SDS011;68121;52.404;5.318;2024-02-26T00:46:34;4.93;;;2.97;;
78778;SDS011;68121;52.404;5.318;2024-02-26T00:49:00;5.78;;;2.65;;
78778;SDS011;68121;52.404;5.318;2024-02-26T00:51:27;6.82;;;2.90;;
78778;SDS011;68121;52.404;5.318;2024-02-26T00:53:53;5.00;;;2.88;;
78778;SDS011;68121;52.404;5.318;2024-02-26T00:56:19;4.25;;;2.75;;
78778;SDS011;68121;52.404;5.318;2024-02-26T00:58:46;4.10;;;2.28;;
78778;SDS011;68121;52.404;5.318;2024-02-26T01:01:12;4.25;;;2.42;;
78778;SDS011;68121;52.404;5.318;2024-02-26T01:03:38;4.57;;;2.78;;
78778;SDS011;68121;52.404;5.318;2024-02-26T01:06:04;6.53;;;2.85;;
78778;SDS011;68121;52.404;5.318;2024-02-26T01:08:30;4.70;;;2.35;;
78778;SDS011;68121;52.404;5.318;2024-02-26T01:10:57;4.22;;;2.67;;
78778;SDS011;68121;52.404;5.318;2024-02-26T01:13:23;5.32;;;2.65;;
78778;SDS011;68121;52.404;5.318;2024-02-26T01:15:49;4.93;;;2.72;;
78778;SDS011;68121;52.404;5.318;2024-02-26T01:18:15;4.50;;;2.47;;
78778;SDS011;68121;52.404;5.318;2024-02-26T01:20:41;4.28;;;2.80;;
78778;SDS011;68121;52.404;5.318;2024-02-26T01:23:07;5.22;;;3.28;;
78778;SDS011;68121;52.404;5.318;2024-02-26T01:25:33;4.90;;;2.95;;
78778;SDS011;68121;52.404;5.318;2024-02-26T01:27:59;4.97;;;2.60;;
78778;SDS011;68121;52.404;5.318;2024-02-26T01:30:25;7.95;;;4.07;;
78778;SDS011;68121;52.404;5.318;2024-02-26T01:32:51;6.80;;;3.67;;
78778;SDS011;68121;52.404;5.318;2024-02-26T01:35:17;7.88;;;2.80;;
78778;SDS011;68121;52.404;5.318;2024-02-26T01:37:43;5.88;;;3.22;;
78778;SDS011;68121;52.404;5.318;2024-02-26T01:40:09;7.63;;;3.55;;
78778;SDS011;68121;52.404;5.318;2024-02-26T01:42:37;6.55;;;4.03;;
78778;SDS011;68121;52.404;5.318;2024-02-26T01:45:04;6.40;;;3.47;;
78778;SDS011;68121;52.404;5.318;2024-02-26T01:47:32;6.32;;;3.90;;
78778;SDS011;68121;52.404;5.318;2024-02-26T01:49:58;8.75;;;4.07;;
78778;SDS011;68121;52.404;5.318;2024-02-26T01:52:25;6.90;;;3.97;;
78778;SDS011;68121;52.404;5.318;2024-02-26T01:54:51;8.15;;;4.43;;
78778;SDS011;68121;52.404;5.318;2024-02-26T01:57:17;6.88;;;3.72;;
78778;SDS011;68121;52.404;5.318;2024-02-26T01:59:43;7.88;;;4.00;;
78778;SDS011;68121;52.404;5.318;2024-02-26T02:02:09;5.40;;;3.40;;
78778;SDS011;68121;52.404;5.318;2024-02-26T02:04:37;5.05;;;3.20;;
78778;SDS011;68121;52.404;5.318;2024-02-26T02:07:03;6.88;;;3.28;;
78778;SDS011;68121;52.404;5.318;2024-02-26T02:09:30;7.97;;;4.00;;
78778;SDS011;68121;52.404;5.318;2024-02-26T02:11:56;7.60;;;4.03;;
78778;SDS011;68121;52.404;5.318;2024-02-26T02:14:23;6.22;;;3.70;;
78778;SDS011;68121;52.404;5.318;2024-02-26T02:16:50;9.73;;;4.05;;
78778;SDS011;68121;52.404;5.318;2024-02-26T02:19:16;9.95;;;4.43;;
78778;SDS011;68121;52.404;5.318;2024-02-26T02:21:42;10.23;;;4.20;;
78778;SDS011;68121;52.404;5.318;2024-02-26T02:24:08;7.70;;;3.70;;
78778;SDS011;68121;52.404;5.318;2024-02-26T02:26:34;9.40;;;4.40;;
78778;SDS011;68121;52.404;5.318;2024-02-26T02:29:01;9.52;;;4.40;;
78778;SDS011;68121;52.404;5.318;2024-02-26T02:31:28;7.45;;;3.80;;
78778;SDS011;68121;52.404;5.318;2024-02-26T02:33:54;7.32;;;3.47;;
78778;SDS011;68121;52.404;5.318;2024-02-26T02:36:20;5.13;;;3.33;;
78778;SDS011;68121;52.404;5.318;2024-02-26T02:38:49;7.00;;;3.88;;
78778;SDS011;68121;52.404;5.318;2024-02-26T02:41:16;7.57;;;4.25;;
78778;SDS011;68121;52.404;5.318;2024-02-26T02:43:43;9.38;;;3.72;;
78778;SDS011;68121;52.404;5.318;2024-02-26T02:46:09;8.93;;;3.70;;
78778;SDS011;68121;52.404;5.318;2024-02-26T02:48:37;6.82;;;3.83;;
78778;SDS011;68121;52.404;5.318;2024-02-26T02:51:03;7.50;;;4.00;;
78778;SDS011;68121;52.404;5.318;2024-02-26T02:53:30;8.38;;;4.18;;
78778;SDS011;68121;52.404;5.318;2024-02-26T02:55:56;7.45;;;4.53;;
78778;SDS011;68121;52.404;5.318;2024-02-26T02:58:22;9.85;;;4.70;;
78778;SDS011;68121;52.404;5.318;2024-02-26T03:00:48;8.20;;;4.72;;
78778;SDS011;68121;52.404;5.318;2024-02-26T03:03:14;6.47;;;3.83;;
78778;SDS011;68121;52.404;5.318;2024-02-26T03:05:40;9.23;;;4.88;;
78778;SDS011;68121;52.404;5.318;2024-02-26T03:08:06;9.80;;;4.93;;
78778;SDS011;68121;52.404;5.318;2024-02-26T03:10:32;10.55;;;4.28;;
78778;SDS011;68121;52.404;5.318;2024-02-26T03:12:58;8.95;;;3.90;;
78778;SDS011;68121;52.404;5.318;2024-02-26T03:15:24;9.20;;;4.78;;
78778;SDS011;68121;52.404;5.318;2024-02-26T03:17:50;9.02;;;4.15;;
78778;SDS011;68121;52.404;5.318;2024-02-26T03:20:16;8.73;;;3.75;;
78778;SDS011;68121;52.404;5.318;2024-02-26T03:22:44;7.00;;;3.97;;
78778;SDS011;68121;52.404;5.318;2024-02-26T03:25:11;9.40;;;4.40;;
78778;SDS011;68121;52.404;5.318;2024-02-26T03:27:37;9.30;;;4.55;;
78778;SDS011;68121;52.404;5.318;2024-02-26T03:30:03;8.32;;;4.70;;
78778;SDS011;68121;52.404;5.318;2024-02-26T03:32:29;7.07;;;4.07;;
78778;SDS011;68121;52.404;5.318;2024-02-26T03:34:55;8.25;;;4.22;;
78778;SDS011;68121;52.404;5.318;2024-02-26T03:37:21;10.07;;;5.35;;
78778;SDS011;68121;52.404;5.318;2024-02-26T03:39:47;8.57;;;4.13;;
78778;SDS011;68121;52.404;5.318;2024-02-26T03:42:13;10.35;;;4.78;;
78778;SDS011;68121;52.404;5.318;2024-02-26T03:44:39;8.57;;;3.95;;
78778;SDS011;68121;52.404;5.318;2024-02-26T03:47:05;9.82;;;4.35;;
78778;SDS011;68121;52.404;5.318;2024-02-26T03:49:31;9.80;;;4.55;;
78778;SDS011;68121;52.404;5.318;2024-02-26T03:51:57;7.60;;;4.10;;
78778;SDS011;68121;52.404;5.318;2024-02-26T03:54:23;8.52;;;4.68;;
78778;SDS011;68121;52.404;5.318;2024-02-26T03:56:49;10.40;;;5.10;;
78778;SDS011;68121;52.404;5.318;2024-02-26T03:59:15;10.00;;;4.75;;
78778;SDS011;68121;52.404;5.318;2024-02-26T04:01:45;10.88;;;5.10;;
78778;SDS011;68121;52.404;5.318;2024-02-26T04:04:15;10.70;;;4.63;;
78778;SDS011;68121;52.404;5.318;2024-02-26T04:06:47;9.63;;;4.78;;
78778;SDS011;68121;52.404;5.318;2024-02-26T04:09:14;8.68;;;4.18;;
78778;SDS011;68121;52.404;5.318;2024-02-26T04:11:40;11.55;;;5.63;;
78778;SDS011;68121;52.404;5.318;2024-02-26T04:14:08;8.65;;;4.32;;
78778;SDS011;68121;52.404;5.318;2024-02-26T04:16:36;10.55;;;4.65;;
78778;SDS011;68121;52.404;5.318;2024-02-26T04:19:03;15.70;;;5.40;;
78778;SDS011;68121;52.404;5.318;2024-02-26T04:21:29;11.63;;;5.70;;
78778;SDS011;68121;52.404;5.318;2024-02-26T04:23:55;14.05;;;5.80;;
78778;SDS011;68121;52.404;5.318;2024-02-26T04:26:21;12.90;;;6.78;;
78778;SDS011;68121;52.404;5.318;2024-02-26T04:28:47;9.40;;;3.65;;
78778;SDS011;68121;52.404;5.318;2024-02-26T04:31:13;9.18;;;4.95;;
78778;SDS011;68121;52.404;5.318;2024-02-26T04:33:39;10.27;;;4.60;;
78778;SDS011;68121;52.404;5.318;2024-02-26T04:36:12;11.30;;;5.10;;
78778;SDS011;68121;52.404;5.318;2024-02-26T04:38:39;10.02;;;4.65;;
78778;SDS011;68121;52.404;5.318;2024-02-26T04:41:05;13.75;;;5.90;;
78778;SDS011;68121;52.404;5.318;2024-02-26T04:43:32;12.60;;;4.85;;
78778;SDS011;68121;52.404;5.318;2024-02-26T04:45:58;13.27;;;5.22;;
78778;SDS011;68121;52.404;5.318;2024-02-26T04:48:24;11.43;;;4.13;;
78778;SDS011;68121;52.404;5.318;2024-02-26T04:50:50;13.13;;;5.93;;
78778;SDS011;68121;52.404;5.318;2024-02-26T04:53:16;14.77;;;6.68;;
78778;SDS011;68121;52.404;5.318;2024-02-26T04:55:42;14.77;;;5.60;;
78778;SDS011;68121;52.404;5.318;2024-02-26T04:58:08;15.68;;;6.47;;
78778;SDS011;68121;52.404;5.318;2024-02-26T05:00:34;12.50;;;5.90;;
78778;SDS011;68121;52.404;5.318;2024-02-26T05:03:00;14.18;;;6.32;;
78778;SDS011;68121;52.404;5.318;2024-02-26T05:05:26;10.63;;;6.07;;
78778;SDS011;68121;52.404;5.318;2024-02-26T05:07:52;15.45;;;7.32;;
78778;SDS011;68121;52.404;5.318;2024-02-26T05:10:18;15.43;;;6.50;;
78778;SDS011;68121;52.404;5.318;2024-02-26T05:12:44;14.73;;;6.78;;
78778;SDS011;68121;52.404;5.318;2024-02-26T05:15:10;17.35;;;8.07;;
78778;SDS011;68121;52.404;5.318;2024-02-26T05:17:36;14.63;;;7.07;;
78778;SDS011;68121;52.404;5.318;2024-02-26T05:20:03;16.60;;;6.43;;
78778;SDS011;68121;52.404;5.318;2024-02-26T05:22:29;16.50;;;7.00;;
78778;SDS011;68121;52.404;5.318;2024-02-26T05:24:55;14.77;;;6.75;;
78778;SDS011;68121;52.404;5.318;2024-02-26T05:27:22;15.50;;;7.82;;
78778;SDS011;68121;52.404;5.318;2024-02-26T05:29:48;16.00;;;6.65;;
78778;SDS011;68121;52.404;5.318;2024-02-26T05:32:14;15.70;;;5.88;;
78778;SDS011;68121;52.404;5.318;2024-02-26T05:34:40;15.05;;;5.85;;
78778;SDS011;68121;52.404;5.318;2024-02-26T05:37:06;14.73;;;6.43;;
78778;SDS011;68121;52.404;5.318;2024-02-26T05:39:33;17.33;;;8.57;;
78778;SDS011;68121;52.404;5.318;2024-02-26T05:41:59;11.68;;;6.47;;
78778;SDS011;68121;52.404;5.318;2024-02-26T05:44:26;15.63;;;6.70;;
78778;SDS011;68121;52.404;5.318;2024-02-26T05:46:52;12.00;;;5.93;;
78778;SDS011;68121;52.404;5.318;2024-02-26T05:49:18;14.98;;;7.63;;
78778;SDS011;68121;52.404;5.318;2024-02-26T05:51:44;15.23;;;7.93;;
78778;SDS011;68121;52.404;5.318;2024-02-26T05:54:11;15.85;;;7.00;;
78778;SDS011;68121;52.404;5.318;2024-02-26T05:56:37;14.80;;;7.20;;
78778;SDS011;68121;52.404;5.318;2024-02-26T05:59:03;14.00;;;6.82;;
78778;SDS011;68121;52.404;5.318;2024-02-26T06:01:29;19.13;;;7.65;;
78778;SDS011;68121;52.404;5.318;2024-02-26T06:03:55;13.00;;;7.20;;
78778;SDS011;68121;52.404;5.318;2024-02-26T06:06:21;13.55;;;6.45;;
78778;SDS011;68121;52.404;5.318;2024-02-26T06:08:48;12.27;;;5.70;;
78778;SDS011;68121;52.404;5.318;2024-02-26T06:11:14;11.68;;;6.15;;
78778;SDS011;68121;52.404;5.318;2024-02-26T06:13:41;11.93;;;6.55;;
78778;SDS011;68121;52.404;5.318;2024-02-26T06:16:08;13.57;;;6.00;;
78778;SDS011;68121;52.404;5.318;2024-02-26T06:18:34;13.90;;;6.85;;
78778;SDS011;68121;52.404;5.318;2024-02-26T06:21:00;12.88;;;6.72;;
78778;SDS011;68121;52.404;5.318;2024-02-26T06:23:26;9.57;;;5.22;;
78778;SDS011;68121;52.404;5.318;2024-02-26T06:25:52;12.30;;;5.90;;
78778;SDS011;68121;52.404;5.318;2024-02-26T06:28:18;11.32;;;4.80;;
78778;SDS011;68121;52.404;5.318;2024-02-26T06:30:44;12.40;;;5.45;;
78778;SDS011;68121;52.404;5.318;2024-02-26T06:33:11;11.82;;;6.25;;
78778;SDS011;68121;52.404;5.318;2024-02-26T06:35:38;14.95;;;5.95;;
78778;SDS011;68121;52.404;5.318;2024-02-26T06:38:04;11.02;;;6.20;;
78778;SDS011;68121;52.404;5.318;2024-02-26T06:40:30;9.77;;;4.95;;
78778;SDS011;68121;52.404;5.318;2024-02-26T06:42:56;11.30;;;5.55;;
78778;SDS011;68121;52.404;5.318;2024-02-26T06:45:22;9.50;;;5.40;;
78778;SDS011;68121;52.404;5.318;2024-02-26T06:47:48;6.18;;;3.53;;
78778;SDS011;68121;52.404;5.318;2024-02-26T06:50:14;11.50;;;5.25;;
78778;SDS011;68121;52.404;5.318;2024-02-26T06:52:40;9.80;;;5.45;;
78778;SDS011;68121;52.404;5.318;2024-02-26T06:55:06;10.50;;;4.53;;
78778;SDS011;68121;52.404;5.318;2024-02-26T06:57:33;8.25;;;3.78;;
78778;SDS011;68121;52.404;5.318;2024-02-26T07:00:00;12.85;;;4.85;;
78778;SDS011;68121;52.404;5.318;2024-02-26T07:02:26;7.88;;;4.28;;
78778;SDS011;68121;52.404;5.318;2024-02-26T07:04:52;7.03;;;2.95;;
78778;SDS011;68121;52.404;5.318;2024-02-26T07:07:18;8.23;;;4.43;;
78778;SDS011;68121;52.404;5.318;2024-02-26T07:09:44;8.05;;;3.90;;
78778;SDS011;68121;52.404;5.318;2024-02-26T07:12:13;7.18;;;3.83;;
78778;SDS011;68121;52.404;5.318;2024-02-26T07:14:41;5.78;;;3.53;;
78778;SDS011;68121;52.404;5.318;2024-02-26T07:17:08;8.77;;;3.65;;
78778;SDS011;68121;52.404;5.318;2024-02-26T07:19:34;7.68;;;3.50;;
78778;SDS011;68121;52.404;5.318;2024-02-26T07:22:00;7.80;;;4.00;;
78778;SDS011;68121;52.404;5.318;2024-02-26T07:24:27;6.93;;;3.08;;
78778;SDS011;68121;52.404;5.318;2024-02-26T07:26:53;7.45;;;4.13;;
78778;SDS011;68121;52.404;5.318;2024-02-26T07:29:22;8.57;;;3.95;;
78778;SDS011;68121;52.404;5.318;2024-02-26T07:31:48;8.98;;;3.92;;
78778;SDS011;68121;52.404;5.318;2024-02-26T07:34:14;6.22;;;2.95;;
78778;SDS011;68121;52.404;5.318;2024-02-26T07:36:40;9.10;;;4.38;;
78778;SDS011;68121;52.404;5.318;2024-02-26T07:39:06;6.50;;;3.33;;
78778;SDS011;68121;52.404;5.318;2024-02-26T07:41:32;6.75;;;3.03;;
78778;SDS011;68121;52.404;5.318;2024-02-26T07:43:58;6.28;;;3.15;;
78778;SDS011;68121;52.404;5.318;2024-02-26T07:46:24;4.82;;;2.65;;
78778;SDS011;68121;52.404;5.318;2024-02-26T07:48:51;4.88;;;2.85;;
78778;SDS011;68121;52.404;5.318;2024-02-26T07:51:17;5.03;;;3.10;;
78778;SDS011;68121;52.404;5.318;2024-02-26T07:53:43;5.72;;;2.80;;
78778;SDS011;68121;52.404;5.318;2024-02-26T07:56:09;4.00;;;2.05;;
78778;SDS011;68121;52.404;5.318;2024-02-26T07:58:35;5.63;;;2.80;;
78778;SDS011;68121;52.404;5.318;2024-02-26T08:01:01;5.53;;;2.15;;
78778;SDS011;68121;52.404;5.318;2024-02-26T08:03:27;4.22;;;2.72;;
78778;SDS011;68121;52.404;5.318;2024-02-26T08:05:53;3.80;;;2.25;;
78778;SDS011;68121;52.404;5.318;2024-02-26T08:08:20;5.05;;;2.70;;
78778;SDS011;68121;52.404;5.318;2024-02-26T08:10:46;3.70;;;2.10;;
78778;SDS011;68121;52.404;5.318;2024-02-26T08:13:12;4.47;;;2.55;;
78778;SDS011;68121;52.404;5.318;2024-02-26T08:15:38;3.15;;;1.70;;
78778;SDS011;68121;52.404;5.318;2024-02-26T08:18:04;4.30;;;1.65;;
78778;SDS011;68121;52.404;5.318;2024-02-26T08:20:30;2.75;;;1.60;;
78778;SDS011;68121;52.404;5.318;2024-02-26T08:22:57;5.43;;;1.67;;
78778;SDS011;68121;52.404;5.318;2024-02-26T08:25:23;3.30;;;1.67;;
78778;SDS011;68121;52.404;5.318;2024-02-26T08:27:50;4.82;;;1.95;;
78778;SDS011;68121;52.404;5.318;2024-02-26T08:30:16;3.55;;;2.22;;
78778;SDS011;68121;52.404;5.318;2024-02-26T08:32:43;4.60;;;2.10;;
78778;SDS011;68121;52.404;5.318;2024-02-26T08:35:09;5.75;;;2.10;;
78778;SDS011;68121;52.404;5.318;2024-02-26T08:37:35;3.88;;;2.10;;
78778;SDS011;68121;52.404;5.318;2024-02-26T08:40:02;2.58;;;1.50;;
78778;SDS011;68121;52.404;5.318;2024-02-26T08:42:29;3.13;;;1.50;;
78778;SDS011;68121;52.404;5.318;2024-02-26T08:44:55;4.75;;;2.65;;
78778;SDS011;68121;52.404;5.318;2024-02-26T08:47:21;4.15;;;2.15;;
78778;SDS011;68121;52.404;5.318;2024-02-26T08:49:48;2.92;;;1.80;;
78778;SDS011;68121;52.404;5.318;2024-02-26T08:52:14;3.72;;;1.80;;
78778;SDS011;68121;52.404;5.318;2024-02-26T08:54:40;3.00;;;1.48;;
78778;SDS011;68121;52.404;5.318;2024-02-26T08:57:06;2.83;;;2.05;;
78778;SDS011;68121;52.404;5.318;2024-02-26T08:59:32;3.30;;;1.58;;
78778;SDS011;68121;52.404;5.318;2024-02-26T09:01:58;4.43;;;1.95;;
78778;SDS011;68121;52.404;5.318;2024-02-26T09:04:24;4.10;;;2.42;;
78778;SDS011;68121;52.404;5.318;2024-02-26T09:06:50;3.40;;;2.00;;
78778;SDS011;68121;52.404;5.318;2024-02-26T09:09:16;4.38;;;1.73;;
78778;SDS011;68121;52.404;5.318;2024-02-26T09:11:43;3.60;;;2.13;;
78778;SDS011;68121;52.404;5.318;2024-02-26T09:14:09;2.85;;;1.80;;
78778;SDS011;68121;52.404;5.318;2024-02-26T09:16:35;4.18;;;2.35;;
78778;SDS011;68121;52.404;5.318;2024-02-26T09:19:01;4.22;;;1.83;;
78778;SDS011;68121;52.404;5.318;2024-02-26T09:21:28;3.13;;;2.13;;
78778;SDS011;68121;52.404;5.318;2024-02-26T09:23:54;4.13;;;2.10;;
78778;SDS011;68121;52.404;5.318;2024-02-26T09:26:20;8.00;;;2.05;;
78778;SDS011;68121;52.404;5.318;2024-02-26T09:28:46;3.65;;;1.95;;
78778;SDS011;68121;52.404;5.318;2024-02-26T09:31:12;3.65;;;1.77;;
78778;SDS011;68121;52.404;5.318;2024-02-26T09:33:41;4.03;;;2.30;;
78778;SDS011;68121;52.404;5.318;2024-02-26T09:36:07;2.58;;;1.33;;
78778;SDS011;68121;52.404;5.318;2024-02-26T09:38:36;7.03;;;2.55;;
78778;SDS011;68121;52.404;5.318;2024-02-26T09:41:06;2.90;;;1.80;;
78778;SDS011;68121;52.404;5.318;2024-02-26T09:43:39;3.50;;;1.85;;
78778;SDS011;68121;52.404;5.318;2024-02-26T09:46:09;2.90;;;1.92;;
78778;SDS011;68121;52.404;5.318;2024-02-26T09:48:35;2.42;;;1.80;;
78778;SDS011;68121;52.404;5.318;2024-02-26T09:51:02;3.13;;;2.10;;
78778;SDS011;68121;52.404;5.318;2024-02-26T09:53:30;3.25;;;1.42;;
78778;SDS011;68121;52.404;5.318;2024-02-26T09:55:57;4.10;;;1.98;;
78778;SDS011;68121;52.404;5.318;2024-02-26T09:58:24;3.92;;;2.35;;
78778;SDS011;68121;52.404;5.318;2024-02-26T10:00:56;5.20;;;2.22;;
78778;SDS011;68121;52.404;5.318;2024-02-26T10:03:28;4.43;;;1.67;;
78778;SDS011;68121;52.404;5.318;2024-02-26T10:05:59;3.10;;;1.83;;
78778;SDS011;68121;52.404;5.318;2024-02-26T10:08:28;3.33;;;1.58;;
78778;SDS011;68121;52.404;5.318;2024-02-26T10:10:55;3.55;;;2.03;;
78778;SDS011;68121;52.404;5.318;2024-02-26T10:13:21;3.22;;;1.98;;
78778;SDS011;68121;52.404;5.318;2024-02-26T10:15:48;3.03;;;1.63;;
78778;SDS011;68121;52.404;5.318;2024-02-26T10:18:15;3.20;;;2.15;;
78778;SDS011;68121;52.404;5.318;2024-02-26T10:20:41;4.68;;;2.03;;
78778;SDS011;68121;52.404;5.318;2024-02-26T10:23:07;8.55;;;2.40;;
78778;SDS011;68121;52.404;5.318;2024-02-26T10:25:33;4.22;;;2.35;;
78778;SDS011;68121;52.404;5.318;2024-02-26T10:28:02;3.28;;;1.95;;
78778;SDS011;68121;52.404;5.318;2024-02-26T10:30:28;5.03;;;2.35;;
78778;SDS011;68121;52.404;5.318;2024-02-26T10:32:55;3.53;;;1.60;;
78778;SDS011;68121;52.404;5.318;2024-02-26T10:35:23;4.15;;;2.03;;
78778;SDS011;68121;52.404;5.318;2024-02-26T10:37:49;4.18;;;1.92;;
78778;SDS011;68121;52.404;5.318;2024-02-26T10:40:16;3.13;;;1.85;;
78778;SDS011;68121;52.404;5.318;2024-02-26T10:42:42;5.20;;;2.38;;
78778;SDS011;68121;52.404;5.318;2024-02-26T10:45:09;3.83;;;1.95;;
78778;SDS011;68121;52.404;5.318;2024-02-26T10:47:35;6.53;;;2.20;;
78778;SDS011;68121;52.404;5.318;2024-02-26T10:50:03;3.35;;;2.00;;
78778;SDS011;68121;52.404;5.318;2024-02-26T10:52:31;3.88;;;2.08;;
78778;SDS011;68121;52.404;5.318;2024-02-26T10:55:03;5.18;;;2.20;;
78778;SDS011;68121;52.404;5.318;2024-02-26T10:57:35;2.80;;;1.60;;
78778;SDS011;68121;52.404;5.318;2024-02-26T11:00:05;10.00;;;2.53;;
78778;SDS011;68121;52.404;5.318;2024-02-26T11:02:33;2.53;;;1.77;;
78778;SDS011;68121;52.404;5.318;2024-02-26T11:05:01;3.85;;;2.30;;
78778;SDS011;68121;52.404;5.318;2024-02-26T11:07:32;4.95;;;2.08;;
78778;SDS011;68121;52.404;5.318;2024-02-26T11:12:29;3.35;;;1.77;;
78778;SDS011;68121;52.404;5.318;2024-02-26T11:14:57;2.78;;;1.33;;
78778;SDS011;68121;52.404;5.318;2024-02-26T11:17:27;3.38;;;1.90;;
78778;SDS011;68121;52.404;5.318;2024-02-26T11:19:57;3.75;;;1.52;;
78778;SDS011;68121;52.404;5.318;2024-02-26T11:22:25;4.47;;;2.05;;
78778;SDS011;68121;52.404;5.318;2024-02-26T11:24:52;1.63;;;1.17;;
78778;SDS011;68121;52.404;5.318;2024-02-26T11:27:21;3.20;;;1.52;;
78778;SDS011;68121;52.404;5.318;2024-02-26T11:29:51;3.63;;;1.70;;
78778;SDS011;68121;52.404;5.318;2024-02-26T11:32:19;2.72;;;1.90;;
78778;SDS011;68121;52.404;5.318;2024-02-26T11:34:46;2.50;;;1.50;;
78778;SDS011;68121;52.404;5.318;2024-02-26T11:37:14;3.70;;;2.05;;
78778;SDS011;68121;52.404;5.318;2024-02-26T11:39:42;4.05;;;2.03;;
78778;SDS011;68121;52.404;5.318;2024-02-26T11:42:10;2.75;;;2.00;;
78778;SDS011;68121;52.404;5.318;2024-02-26T11:44:39;4.30;;;1.73;;
78778;SDS011;68121;52.404;5.318;2024-02-26T11:49:36;4.72;;;2.30;;
78778;SDS011;68121;52.404;5.318;2024-02-26T11:52:04;2.92;;;1.67;;
78778;SDS011;68121;52.404;5.318;2024-02-26T11:57:30;4.15;;;1.88;;
78778;SDS011;68121;52.404;5.318;2024-02-26T12:02:51;2.78;;;1.85;;
78778;SDS011;68121;52.404;5.318;2024-02-26T12:05:26;3.13;;;1.48;;
78778;SDS011;68121;52.404;5.318;2024-02-26T12:08:03;3.78;;;1.98;;
78778;SDS011;68121;52.404;5.318;2024-02-26T12:10:35;2.55;;;1.58;;
78778;SDS011;68121;52.404;5.318;2024-02-26T12:15:39;2.10;;;1.17;;
78778;SDS011;68121;52.404;5.318;2024-02-26T12:18:08;2.63;;;1.70;;
78778;SDS011;68121;52.404;5.318;2024-02-26T12:20:37;2.20;;;1.25;;
78778;SDS011;68121;52.404;5.318;2024-02-26T12:23:04;4.07;;;1.77;;
78778;SDS011;68121;52.404;5.318;2024-02-26T12:25:30;2.47;;;1.77;;
78778;SDS011;68121;52.404;5.318;2024-02-26T12:27:58;2.90;;;1.35;;
78778;SDS011;68121;52.404;5.318;2024-02-26T12:30:24;2.83;;;1.40;;
78778;SDS011;68121;52.404;5.318;2024-02-26T12:32:52;2.22;;;1.58;;
78778;SDS011;68121;52.404;5.318;2024-02-26T12:35:23;4.72;;;1.83;;
78778;SDS011;68121;52.404;5.318;2024-02-26T12:37:53;2.55;;;1.63;;
78778;SDS011;68121;52.404;5.318;2024-02-26T12:40:19;2.13;;;1.38;;
78778;SDS011;68121;52.404;5.318;2024-02-26T12:42:46;4.20;;;1.60;;
78778;SDS011;68121;52.404;5.318;2024-02-26T12:45:13;2.42;;;1.55;;
78778;SDS011;68121;52.404;5.318;2024-02-26T12:47:41;3.53;;;1.70;;
78778;SDS011;68121;52.404;5.318;2024-02-26T12:50:08;4.78;;;1.60;;
78778;SDS011;68121;52.404;5.318;2024-02-26T12:52:37;2.47;;;1.10;;
78778;SDS011;68121;52.404;5.318;2024-02-26T12:55:12;3.05;;;1.48;;
78778;SDS011;68121;52.404;5.318;2024-02-26T12:57:44;3.03;;;1.60;;
78778;SDS011;68121;52.404;5.318;2024-02-26T13:00:12;2.72;;;1.27;;
78778;SDS011;68121;52.404;5.318;2024-02-26T13:02:40;1.92;;;1.15;;
78778;SDS011;68121;52.404;5.318;2024-02-26T13:05:11;3.10;;;1.25;;
78778;SDS011;68121;52.404;5.318;2024-02-26T13:07:44;3.00;;;1.80;;
78778;SDS011;68121;52.404;5.318;2024-02-26T13:10:14;2.80;;;1.25;;
78778;SDS011;68121;52.404;5.318;2024-02-26T13:12:46;2.17;;;1.40;;
78778;SDS011;68121;52.404;5.318;2024-02-26T13:15:14;2.30;;;1.48;;
78778;SDS011;68121;52.404;5.318;2024-02-26T13:17:42;1.77;;;1.23;;
78778;SDS011;68121;52.404;5.318;2024-02-26T13:20:12;3.15;;;1.75;;
78778;SDS011;68121;52.404;5.318;2024-02-26T13:22:40;3.70;;;1.02;;
78778;SDS011;68121;52.404;5.318;2024-02-26T13:25:06;2.50;;;1.38;;
78778;SDS011;68121;52.404;5.318;2024-02-26T13:27:33;2.78;;;1.23;;
78778;SDS011;68121;52.404;5.318;2024-02-26T13:32:34;3.05;;;1.83;;
78778;SDS011;68121;52.404;5.318;2024-02-26T13:35:11;1.15;;;0.90;;
78778;SDS011;68121;52.404;5.318;2024-02-26T13:37:38;2.20;;;1.45;;
78778;SDS011;68121;52.404;5.318;2024-02-26T13:40:14;2.53;;;1.50;;
78778;SDS011;68121;52.404;5.318;2024-02-26T13:42:40;1.48;;;1.30;;
78778;SDS011;68121;52.404;5.318;2024-02-26T13:45:06;1.73;;;1.00;;
78778;SDS011;68121;52.404;5.318;2024-02-26T13:47:33;1.63;;;1.27;;
78778;SDS011;68121;52.404;5.318;2024-02-26T13:50:00;2.50;;;1.23;;
78778;SDS011;68121;52.404;5.318;2024-02-26T13:52:26;2.28;;;1.35;;
78778;SDS011;68121;52.404;5.318;2024-02-26T13:54:52;2.63;;;1.15;;
78778;SDS011;68121;52.404;5.318;2024-02-26T13:57:19;1.98;;;1.35;;
78778;SDS011;68121;52.404;5.318;2024-02-26T13:59:45;1.80;;;0.73;;
78778;SDS011;68121;52.404;5.318;2024-02-26T14:02:11;2.10;;;1.40;;
78778;SDS011;68121;52.404;5.318;2024-02-26T14:04:38;2.30;;;1.10;;
78778;SDS011;68121;52.404;5.318;2024-02-26T14:07:04;1.88;;;1.23;;
78778;SDS011;68121;52.404;5.318;2024-02-26T14:09:30;1.88;;;1.20;;
78778;SDS011;68121;52.404;5.318;2024-02-26T14:11:58;4.25;;;1.42;;
78778;SDS011;68121;52.404;5.318;2024-02-26T14:14:27;5.28;;;1.50;;
78778;SDS011;68121;52.404;5.318;2024-02-26T14:16:53;2.55;;;1.05;;
78778;SDS011;68121;52.404;5.318;2024-02-26T14:19:19;2.85;;;1.58;;
78778;SDS011;68121;52.404;5.318;2024-02-26T14:21:45;2.75;;;1.33;;
78778;SDS011;68121;52.404;5.318;2024-02-26T14:24:14;2.10;;;1.38;;
78778;SDS011;68121;52.404;5.318;2024-02-26T14:26:40;2.80;;;1.33;;
78778;SDS011;68121;52.404;5.318;2024-02-26T14:29:06;3.42;;;1.30;;
78778;SDS011;68121;52.404;5.318;2024-02-26T14:31:32;2.30;;;1.30;;
78778;SDS011;68121;52.404;5.318;2024-02-26T14:33:58;5.22;;;1.85;;
78778;SDS011;68121;52.404;5.318;2024-02-26T14:36:25;1.80;;;1.30;;
78778;SDS011;68121;52.404;5.318;2024-02-26T14:38:51;1.73;;;1.42;;
78778;SDS011;68121;52.404;5.318;2024-02-26T14:41:17;2.17;;;1.55;;
78778;SDS011;68121;52.404;5.318;2024-02-26T14:43:43;1.92;;;1.27;;
78778;SDS011;68121;52.404;5.318;2024-02-26T14:46:09;3.30;;;1.33;;
78778;SDS011;68121;52.404;5.318;2024-02-26T14:48:35;4.65;;;1.45;;
78778;SDS011;68121;52.404;5.318;2024-02-26T14:51:01;4.65;;;1.55;;
78778;SDS011;68121;52.404;5.318;2024-02-26T14:53:28;2.25;;;1.23;;
78778;SDS011;68121;52.404;5.318;2024-02-26T14:55:54;3.78;;;1.45;;
78778;SDS011;68121;52.404;5.318;2024-02-26T14:58:20;4.30;;;1.60;;